createdAt,value
2019-03-03T00:00:05.998Z,8.30
2019-03-03T00:02:36.310Z,8.30
2019-03-03T00:05:06.452Z,8.30
2019-03-03T00:07:38.307Z,8.30
2019-03-03T00:10:08.926Z,8.40
2019-03-03T00:12:39.265Z,8.40
2019-03-03T00:15:09.862Z,8.40
2019-03-03T00:17:40.505Z,8.40
2019-03-03T00:20:11.157Z,8.40
2019-03-03T00:22:45.843Z,8.40
2019-03-03T00:25:21.542Z,8.40
2019-03-03T00:27:53.700Z,8.40
2019-03-03T00:30:24.074Z,8.40
2019-03-03T00:32:54.374Z,8.40
2019-03-03T00:35:24.917Z,8.50
2019-03-03T00:38:03.329Z,8.50
2019-03-03T00:40:47.033Z,8.50
2019-03-03T00:43:36.442Z,8.50
2019-03-03T00:46:31.875Z,8.50
2019-03-03T00:49:20.317Z,8.50
2019-03-03T00:52:05.038Z,8.50
2019-03-03T00:55:00.515Z,8.50
2019-03-03T00:57:49.878Z,8.40
2019-03-03T01:00:31.235Z,8.50
2019-03-03T01:03:10.882Z,8.50
2019-03-03T01:05:51.266Z,8.50
2019-03-03T01:08:30.629Z,8.50
2019-03-03T01:11:22.925Z,8.50
2019-03-03T01:13:59.794Z,8.50
2019-03-03T01:16:47.930Z,8.50
2019-03-03T01:19:33.324Z,8.60
2019-03-03T01:22:22.693Z,8.50
2019-03-03T01:24:58.165Z,8.50
2019-03-03T01:27:28.983Z,8.60
2019-03-03T01:29:59.292Z,8.60
2019-03-03T01:32:29.606Z,8.60
2019-03-03T01:34:59.945Z,8.60
2019-03-03T01:37:30.323Z,8.60
2019-03-03T01:40:00.630Z,8.60
2019-03-03T01:42:30.965Z,8.60
2019-03-03T01:45:01.274Z,8.60
2019-03-03T01:47:31.610Z,8.60
2019-03-03T01:50:01.903Z,8.60
2019-03-03T01:52:32.285Z,8.60
2019-03-03T01:55:02.755Z,8.60
2019-03-03T01:57:33.032Z,8.60
2019-03-03T02:00:08.763Z,8.60
2019-03-03T02:02:39.205Z,8.60
2019-03-03T02:05:10.834Z,8.60
2019-03-03T02:07:41.491Z,8.60
2019-03-03T02:10:11.878Z,8.60
2019-03-03T02:12:42.430Z,8.50
2019-03-03T02:15:13.492Z,8.50
2019-03-03T02:17:43.836Z,8.50
2019-03-03T02:20:14.331Z,8.50
2019-03-03T02:22:44.743Z,8.50
2019-03-03T02:25:15.099Z,8.60
2019-03-03T02:27:45.596Z,8.60
2019-03-03T02:30:17.322Z,8.60
2019-03-03T02:32:47.761Z,8.60
2019-03-03T02:35:18.311Z,8.60
2019-03-03T02:37:48.641Z,8.60
2019-03-03T02:40:18.963Z,8.60
2019-03-03T02:42:49.299Z,8.60
2019-03-03T02:45:20.292Z,8.60
2019-03-03T02:47:50.631Z,8.60
2019-03-03T02:50:20.942Z,8.50
2019-03-03T02:52:51.412Z,8.50
2019-03-03T02:55:21.735Z,8.50
2019-03-03T02:57:52.064Z,8.50
2019-03-03T03:00:22.554Z,8.40
2019-03-03T03:02:54.725Z,8.40
2019-03-03T03:05:54.428Z,8.40
2019-03-03T03:08:32.434Z,8.30
2019-03-03T03:11:31.147Z,8.30
2019-03-03T03:14:19.805Z,8.30
2019-03-03T03:17:03.133Z,8.30
2019-03-03T03:19:40.895Z,8.30
2019-03-03T03:22:21.764Z,8.30
2019-03-03T03:25:10.354Z,8.30
2019-03-03T03:28:01.074Z,8.30
2019-03-03T03:30:39.848Z,8.20
2019-03-03T03:33:21.710Z,8.20
2019-03-03T03:35:58.526Z,8.20
2019-03-03T03:38:40.546Z,8.20
2019-03-03T03:41:18.768Z,8.20
2019-03-03T03:44:07.256Z,8.20
2019-03-03T03:46:55.435Z,8.10
2019-03-03T03:49:33.439Z,8.10
2019-03-03T03:52:25.840Z,8.10
2019-03-03T03:55:15.250Z,8.00
2019-03-03T03:58:07.536Z,8.10
2019-03-03T04:00:59.969Z,8.00
2019-03-03T04:03:52.359Z,8.00
2019-03-03T04:06:50.657Z,8.10
2019-03-03T04:09:38.529Z,8.00
2019-03-03T04:12:27.885Z,8.00
2019-03-03T04:15:06.087Z,8.00
2019-03-03T04:18:04.759Z,8.00
2019-03-03T04:21:00.355Z,8.00
2019-03-03T04:23:58.846Z,8.00
2019-03-03T04:26:48.249Z,8.00
2019-03-03T04:29:36.574Z,8.00
2019-03-03T04:32:12.530Z,8.00
2019-03-03T04:35:04.948Z,8.00
2019-03-03T04:37:51.790Z,8.00
2019-03-03T04:40:40.287Z,8.00
2019-03-03T04:43:36.530Z,8.00
2019-03-03T04:46:26.865Z,8.00
2019-03-03T04:49:25.565Z,8.00
2019-03-03T04:52:14.037Z,7.90
2019-03-03T04:55:03.395Z,7.90
2019-03-03T04:57:46.103Z,8.00
2019-03-03T05:00:38.542Z,8.00
2019-03-03T05:03:18.339Z,8.00
2019-03-03T05:06:20.067Z,8.00
2019-03-03T05:09:13.914Z,8.00
2019-03-03T05:12:39.126Z,8.00
2019-03-03T05:15:32.989Z,8.00
2019-03-03T05:18:12.478Z,8.00
2019-03-03T05:20:47.095Z,8.00
2019-03-03T05:23:17.433Z,8.00
2019-03-03T05:25:47.824Z,8.00
2019-03-03T05:28:18.081Z,8.10
2019-03-03T05:30:48.474Z,8.00
2019-03-03T05:33:18.780Z,8.10
2019-03-03T05:35:49.090Z,8.10
2019-03-03T05:38:19.395Z,8.10
2019-03-03T05:40:49.703Z,8.10
2019-03-03T05:43:20.084Z,8.10
2019-03-03T05:45:50.393Z,8.20
2019-03-03T05:48:20.710Z,8.20
2019-03-03T05:50:51.022Z,8.20
2019-03-03T05:53:21.316Z,8.20
2019-03-03T05:55:51.649Z,8.20
2019-03-03T05:58:21.957Z,8.20
2019-03-03T06:00:52.415Z,8.20
2019-03-03T06:03:22.810Z,8.20
2019-03-03T06:05:53.151Z,8.30
2019-03-03T06:08:23.447Z,8.30
2019-03-03T06:10:53.782Z,8.30
2019-03-03T06:13:24.080Z,8.30
2019-03-03T06:15:54.413Z,8.30
2019-03-03T06:18:24.742Z,8.40
2019-03-03T06:20:57.427Z,8.40
2019-03-03T06:23:27.710Z,8.40
2019-03-03T06:25:58.055Z,8.40
2019-03-03T06:28:28.387Z,8.40
2019-03-03T06:30:58.759Z,8.40
2019-03-03T06:33:29.102Z,8.40
2019-03-03T06:35:59.447Z,8.40
2019-03-03T06:38:29.762Z,8.40
2019-03-03T06:41:00.155Z,8.50
2019-03-03T06:43:30.476Z,8.50
2019-03-03T06:46:00.886Z,8.50
2019-03-03T06:48:31.203Z,8.50
2019-03-03T06:51:01.624Z,8.50
2019-03-03T06:53:31.923Z,8.50
2019-03-03T06:56:02.239Z,8.50
2019-03-03T06:58:32.550Z,8.60
2019-03-03T07:01:03.045Z,8.60
2019-03-03T07:03:33.353Z,8.60
2019-03-03T07:06:03.653Z,8.60
2019-03-03T07:08:34.017Z,8.60
2019-03-03T07:11:04.328Z,8.60
2019-03-03T07:13:34.634Z,8.60
2019-03-03T07:16:05.140Z,8.70
2019-03-03T07:18:35.441Z,8.70
2019-03-03T07:21:05.922Z,8.70
2019-03-03T07:23:36.249Z,8.70
2019-03-03T07:26:06.549Z,8.70
2019-03-03T07:28:36.896Z,8.70
2019-03-03T07:31:07.191Z,8.70
2019-03-03T07:33:39.868Z,8.70
2019-03-03T07:36:10.172Z,8.70
2019-03-03T07:38:40.961Z,8.80
2019-03-03T07:41:11.386Z,8.80
2019-03-03T07:43:41.688Z,8.80
2019-03-03T07:46:11.998Z,8.70
2019-03-03T07:48:42.313Z,8.80
2019-03-03T07:51:12.623Z,8.80
2019-03-03T07:53:42.929Z,8.80
2019-03-03T07:56:13.334Z,8.90
2019-03-03T07:58:43.638Z,8.90
2019-03-03T08:01:13.945Z,8.90
2019-03-03T08:03:44.246Z,8.90
2019-03-03T08:06:14.662Z,9.00
2019-03-03T08:08:45.021Z,9.00
2019-03-03T08:11:15.321Z,9.00
2019-03-03T08:13:45.781Z,9.10
2019-03-03T08:16:16.174Z,9.10
2019-03-03T08:18:46.562Z,9.20
2019-03-03T08:21:16.890Z,9.30
2019-03-03T08:23:47.197Z,9.30
2019-03-03T08:26:17.545Z,9.30
2019-03-03T08:28:47.866Z,9.30
2019-03-03T08:31:18.170Z,9.40
2019-03-03T08:33:48.529Z,9.30
2019-03-03T08:36:19.004Z,9.30
2019-03-03T08:38:49.314Z,9.40
2019-03-03T08:41:19.619Z,9.40
2019-03-03T08:44:13.091Z,9.40
2019-03-03T08:47:05.555Z,9.50
2019-03-03T08:49:41.877Z,9.40
2019-03-03T08:52:42.811Z,9.40
2019-03-03T08:57:06.394Z,9.40
2019-03-03T08:59:52.058Z,9.40
2019-03-03T09:02:32.955Z,9.50
2019-03-03T09:05:19.827Z,9.60
2019-03-03T09:08:14.021Z,9.50
2019-03-03T09:11:16.215Z,9.60
2019-03-03T09:14:14.840Z,9.60
2019-03-03T09:17:15.920Z,9.60
2019-03-03T09:19:54.694Z,9.60
2019-03-03T09:22:46.913Z,9.60
2019-03-03T09:25:39.313Z,9.60
2019-03-03T09:28:34.741Z,9.70
2019-03-03T09:31:11.122Z,9.70
2019-03-03T09:33:54.571Z,9.70
2019-03-03T09:36:43.930Z,9.70
2019-03-03T09:39:36.462Z,9.70
2019-03-03T09:42:16.009Z,9.80
2019-03-03T09:45:05.361Z,9.80
2019-03-03T09:47:53.552Z,9.90
2019-03-03T09:50:58.672Z,9.80
2019-03-03T09:53:40.659Z,9.90
2019-03-03T09:56:21.802Z,9.90
2019-03-03T09:59:05.590Z,10.00
2019-03-03T10:01:52.194Z,10.00
2019-03-03T10:04:41.614Z,10.00
2019-03-03T10:07:40.138Z,10.00
2019-03-03T10:10:29.942Z,10.00
2019-03-03T10:13:19.411Z,10.00
2019-03-03T10:15:59.410Z,10.00
2019-03-03T10:18:49.159Z,9.90
2019-03-03T10:21:36.175Z,9.90
2019-03-03T10:24:15.581Z,9.90
2019-03-03T10:30:30.280Z,9.90
2019-03-03T10:33:18.304Z,9.70
2019-03-03T10:36:02.583Z,9.70
2019-03-03T10:38:42.210Z,9.80
2019-03-03T10:41:21.836Z,9.80
2019-03-03T10:43:59.445Z,9.90
2019-03-03T10:46:45.664Z,10.00
2019-03-03T10:49:38.334Z,10.00
2019-03-03T10:52:37.200Z,10.00
2019-03-03T10:55:24.347Z,10.00
2019-03-03T10:58:13.886Z,10.00
2019-03-03T11:01:18.626Z,10.00
2019-03-03T11:04:23.100Z,10.00
2019-03-03T11:07:17.563Z,9.90
2019-03-03T11:10:30.489Z,9.90
2019-03-03T11:13:06.505Z,9.90
2019-03-03T11:15:55.992Z,9.80
2019-03-03T11:18:55.601Z,9.90
2019-03-03T11:21:45.934Z,9.90
2019-03-03T11:24:38.306Z,9.90
2019-03-03T11:27:34.786Z,10.00
2019-03-03T11:30:26.900Z,9.90
2019-03-03T11:33:06.327Z,9.90
2019-03-03T11:35:52.966Z,9.90
2019-03-03T11:38:42.890Z,9.90
2019-03-03T11:41:31.231Z,9.80
2019-03-03T11:44:26.680Z,9.90
2019-03-03T11:47:19.093Z,9.80
2019-03-03T11:50:07.353Z,9.80
2019-03-03T11:52:52.573Z,9.80
2019-03-03T11:55:28.369Z,9.80
2019-03-03T11:58:15.010Z,9.90
2019-03-03T12:01:20.616Z,9.90
2019-03-03T12:04:13.525Z,10.00
2019-03-03T12:07:07.502Z,10.10
2019-03-03T12:09:45.904Z,10.10
2019-03-03T12:12:35.201Z,10.10
2019-03-03T12:15:33.658Z,10.10
2019-03-03T12:18:15.090Z,10.10
2019-03-03T12:21:01.642Z,10.20
2019-03-03T12:23:52.994Z,10.20
2019-03-03T12:26:44.515Z,10.20
2019-03-03T12:29:25.987Z,10.20
2019-03-03T12:32:22.486Z,10.20
2019-03-03T12:35:15.381Z,10.30
2019-03-03T12:38:03.719Z,10.30
2019-03-03T12:40:50.214Z,10.30
2019-03-03T12:43:48.109Z,10.40
2019-03-03T12:46:27.524Z,10.40
2019-03-03T12:49:10.978Z,10.50
2019-03-03T12:51:51.226Z,10.50
2019-03-03T12:55:00.320Z,10.60
2019-03-03T12:57:36.373Z,10.50
2019-03-03T13:00:16.482Z,10.60
2019-03-03T13:03:08.873Z,10.50
2019-03-03T13:05:58.071Z,10.60
2019-03-03T13:08:47.435Z,10.60
2019-03-03T13:11:33.769Z,10.60
2019-03-03T13:14:26.418Z,10.60
2019-03-03T13:17:14.774Z,10.60
2019-03-03T13:19:55.226Z,10.70
2019-03-03T13:22:47.491Z,10.60
2019-03-03T13:25:46.050Z,10.70
2019-03-03T13:28:29.797Z,10.60
2019-03-03T13:31:09.742Z,10.70
2019-03-03T13:34:01.202Z,10.70
2019-03-03T13:36:53.581Z,10.80
2019-03-03T13:39:39.213Z,10.80
2019-03-03T13:42:22.297Z,10.80
2019-03-03T13:44:52.652Z,10.70
2019-03-03T13:47:23.042Z,10.70
2019-03-03T13:49:53.450Z,10.80
2019-03-03T13:52:23.783Z,10.80
2019-03-03T13:54:54.122Z,10.80
2019-03-03T13:57:25.150Z,10.80
2019-03-03T13:59:55.518Z,10.90
2019-03-03T14:02:27.111Z,10.80
2019-03-03T14:04:58.903Z,10.80
2019-03-03T14:07:32.040Z,10.70
2019-03-03T14:10:06.574Z,10.60
2019-03-03T14:12:39.994Z,10.60
2019-03-03T14:15:12.809Z,10.50
2019-03-03T14:17:43.138Z,10.50
2019-03-03T14:20:18.523Z,10.50
2019-03-03T14:22:49.146Z,10.50
2019-03-03T14:25:19.631Z,10.60
2019-03-03T14:27:50.275Z,10.60
2019-03-03T14:30:22.273Z,10.50
2019-03-03T14:32:52.744Z,10.50
2019-03-03T14:35:25.380Z,10.50
2019-03-03T14:37:57.903Z,10.50
2019-03-03T14:40:36.943Z,10.40
2019-03-03T14:43:16.318Z,10.50
2019-03-03T14:45:46.670Z,10.40
2019-03-03T14:48:18.319Z,10.40
2019-03-03T14:50:48.659Z,10.40
2019-03-03T14:53:19.006Z,10.40
2019-03-03T14:55:49.370Z,10.40
2019-03-03T14:58:20.010Z,10.40
2019-03-03T15:00:50.549Z,10.30
2019-03-03T15:03:20.875Z,10.30
2019-03-03T15:05:51.189Z,10.10
2019-03-03T15:08:21.570Z,10.20
2019-03-03T15:10:52.022Z,10.20
2019-03-03T15:13:22.327Z,10.10
2019-03-03T15:15:53.017Z,10.10
2019-03-03T15:18:24.536Z,10.10
2019-03-03T15:20:55.221Z,10.10
2019-03-03T15:23:25.639Z,10.10
2019-03-03T15:25:56.002Z,10.10
2019-03-03T15:28:26.418Z,10.10
2019-03-03T15:30:56.744Z,10.10
2019-03-03T15:33:27.203Z,10.10
2019-03-03T15:35:58.954Z,10.10
2019-03-03T15:38:29.405Z,10.10
2019-03-03T15:40:59.762Z,10.10
2019-03-03T15:43:30.117Z,10.00
2019-03-03T15:46:00.475Z,10.00
2019-03-03T15:48:31.530Z,9.90
2019-03-03T15:51:02.557Z,9.90
2019-03-03T15:53:32.922Z,10.00
2019-03-03T15:56:03.325Z,9.90
2019-03-03T15:58:33.709Z,9.90
2019-03-03T16:01:05.686Z,9.90
2019-03-03T16:03:36.206Z,10.00
2019-03-03T16:06:06.225Z,9.90
2019-03-03T16:08:36.601Z,9.90
2019-03-03T16:11:06.503Z,9.90
2019-03-03T16:13:36.858Z,9.90
2019-03-03T16:16:06.850Z,9.90
2019-03-03T16:18:37.193Z,9.90
2019-03-03T16:21:07.512Z,9.90
2019-03-03T16:23:40.159Z,9.80
2019-03-03T16:26:10.464Z,9.80
2019-03-03T16:28:40.865Z,9.80
2019-03-03T16:31:11.217Z,9.80
2019-03-03T16:33:41.574Z,9.80
2019-03-03T16:36:11.954Z,9.80
2019-03-03T16:38:42.257Z,9.80
2019-03-03T16:41:12.679Z,9.80
2019-03-03T16:43:42.994Z,9.80
2019-03-03T16:46:13.297Z,9.80
2019-03-03T16:48:43.599Z,9.80
2019-03-03T16:51:13.973Z,9.80
2019-03-03T16:53:44.277Z,9.70
2019-03-03T16:56:15.330Z,9.70
2019-03-03T16:58:45.720Z,9.70
2019-03-03T17:01:16.022Z,9.70
2019-03-03T17:03:46.350Z,9.70
2019-03-03T17:06:16.642Z,9.60
2019-03-03T17:08:46.945Z,9.60
2019-03-03T17:11:17.314Z,9.70
2019-03-03T17:13:47.608Z,9.60
2019-03-03T17:16:17.893Z,9.70
2019-03-03T17:18:48.474Z,9.70
2019-03-03T17:21:18.775Z,9.70
2019-03-03T17:23:49.078Z,9.70
2019-03-03T17:26:19.385Z,9.60
2019-03-03T17:28:49.708Z,9.60
2019-03-03T17:31:20.006Z,9.60
2019-03-03T17:33:50.326Z,9.60
2019-03-03T17:36:20.627Z,9.60
2019-03-03T17:38:50.942Z,9.60
2019-03-03T17:41:21.234Z,9.60
2019-03-03T17:43:51.563Z,9.50
2019-03-03T17:46:21.937Z,9.50
2019-03-03T17:48:52.254Z,9.60
2019-03-03T17:51:22.562Z,9.60
2019-03-03T17:53:52.938Z,9.50
2019-03-03T17:56:23.242Z,9.60
2019-03-03T17:58:53.577Z,9.60
2019-03-03T18:01:23.952Z,9.60
2019-03-03T18:03:54.270Z,9.60
2019-03-03T18:06:24.618Z,9.50
2019-03-03T18:08:55.019Z,9.50
2019-03-03T18:11:25.324Z,9.50
2019-03-03T18:13:55.645Z,9.50
2019-03-03T18:16:26.366Z,9.50
2019-03-03T18:18:56.693Z,9.50
2019-03-03T18:21:27.075Z,9.50
2019-03-03T18:23:57.406Z,9.50
2019-03-03T18:26:27.726Z,9.50
2019-03-03T18:28:58.025Z,9.50
2019-03-03T18:31:28.338Z,9.50
2019-03-03T18:33:58.770Z,9.50
2019-03-03T18:36:29.671Z,9.50
2019-03-03T18:38:59.966Z,9.50
2019-03-03T18:41:30.345Z,9.50
2019-03-03T18:44:00.646Z,9.50
2019-03-03T18:46:30.946Z,9.50
2019-03-03T18:49:01.241Z,9.50
2019-03-03T18:51:31.583Z,9.60
2019-03-03T18:54:01.922Z,9.60
2019-03-03T18:56:32.218Z,9.60
2019-03-03T18:59:02.538Z,9.60
2019-03-03T19:01:32.844Z,9.50
2019-03-03T19:04:03.160Z,9.60
2019-03-03T19:06:34.948Z,9.60
2019-03-03T19:09:09.421Z,9.60
2019-03-03T19:11:40.375Z,9.60
2019-03-03T19:14:10.687Z,9.60
2019-03-03T19:16:41.363Z,9.60
2019-03-03T19:19:11.678Z,9.60
2019-03-03T19:21:41.973Z,9.60
2019-03-03T19:24:12.294Z,9.60
2019-03-03T19:26:43.423Z,9.60
2019-03-03T19:29:13.738Z,9.60
2019-03-03T19:31:44.129Z,9.60
2019-03-03T19:34:15.653Z,9.60
2019-03-03T19:36:47.229Z,9.60
2019-03-03T19:39:18.985Z,9.50
2019-03-03T19:41:50.490Z,9.50
2019-03-03T19:44:22.045Z,9.50
2019-03-03T19:46:53.325Z,9.50
2019-03-03T19:49:25.144Z,9.60
2019-03-03T19:51:56.662Z,9.50
2019-03-03T19:54:28.428Z,9.50
2019-03-03T19:57:00.305Z,9.50
2019-03-03T19:59:32.056Z,9.50
2019-03-03T20:02:03.415Z,9.50
2019-03-03T20:04:34.925Z,9.50
2019-03-03T20:07:06.430Z,9.60
2019-03-03T20:09:37.492Z,9.50
2019-03-03T20:12:09.654Z,9.60
2019-03-03T20:14:41.414Z,9.60
2019-03-03T20:17:13.329Z,9.60
2019-03-03T20:19:44.821Z,9.60
2019-03-03T20:22:16.695Z,9.60
2019-03-03T20:24:48.282Z,9.60
2019-03-03T20:27:19.324Z,9.60
2019-03-03T20:29:50.903Z,9.50
2019-03-03T20:32:22.952Z,9.50
2019-03-03T20:34:54.624Z,9.60
2019-03-03T20:37:26.380Z,9.60
2019-03-03T20:39:58.122Z,9.60
2019-03-03T20:42:29.479Z,9.50
2019-03-03T20:45:00.248Z,9.60
2019-03-03T20:47:31.850Z,9.50
2019-03-03T20:50:03.424Z,9.50
2019-03-03T20:52:33.706Z,9.50
2019-03-03T20:55:03.998Z,9.50
2019-03-03T20:57:36.454Z,9.60
2019-03-03T21:00:12.119Z,9.60
2019-03-03T21:02:49.919Z,9.60
2019-03-03T21:05:21.698Z,9.60
2019-03-03T21:07:53.473Z,9.60
2019-03-03T21:10:25.220Z,9.60
2019-03-03T21:12:58.159Z,9.60
2019-03-03T21:15:29.970Z,9.70
2019-03-03T21:18:00.937Z,9.60
2019-03-03T21:20:32.394Z,9.70
2019-03-03T21:23:03.782Z,9.70
2019-03-03T21:25:36.418Z,9.70
2019-03-03T21:28:09.508Z,9.70
2019-03-03T21:30:40.847Z,9.60
2019-03-03T21:33:13.252Z,9.60
2019-03-03T21:35:44.932Z,9.70
2019-03-03T21:38:16.658Z,9.70
2019-03-03T21:40:47.996Z,9.70
2019-03-03T21:43:21.057Z,9.70
2019-03-03T21:45:52.671Z,9.70
2019-03-03T21:48:33.765Z,9.60
2019-03-03T21:51:05.672Z,9.60
2019-03-03T21:53:37.779Z,9.60
2019-03-03T21:56:09.619Z,9.60
2019-03-03T21:58:41.036Z,9.60
2019-03-03T22:01:14.594Z,9.50
2019-03-03T22:03:48.536Z,9.50
2019-03-03T22:06:19.127Z,9.50
2019-03-03T22:08:51.629Z,9.50
2019-03-03T22:11:21.953Z,9.50
2019-03-03T22:13:53.947Z,9.50
2019-03-03T22:16:25.603Z,9.50
2019-03-03T22:18:58.788Z,9.50
2019-03-03T22:21:30.937Z,9.40
2019-03-03T22:24:03.973Z,9.40
2019-03-03T22:26:53.141Z,9.40
2019-03-03T22:29:26.515Z,9.40
2019-03-03T22:31:58.290Z,9.40
2019-03-03T22:34:30.052Z,9.40
2019-03-03T22:37:00.385Z,9.50
2019-03-03T22:39:33.612Z,9.40
2019-03-03T22:42:05.925Z,9.40
2019-03-03T22:44:38.168Z,9.40
2019-03-03T22:47:10.335Z,9.50
2019-03-03T22:49:42.393Z,9.50
2019-03-03T22:52:14.195Z,9.50
2019-03-03T22:54:45.725Z,9.50
2019-03-03T22:57:19.005Z,9.50
2019-03-03T22:59:50.620Z,9.50
2019-03-03T23:02:23.930Z,9.50
2019-03-03T23:05:24.764Z,9.60
2019-03-03T23:08:20.899Z,9.50
2019-03-03T23:11:46.268Z,9.60
2019-03-03T23:14:58.395Z,9.60
2019-03-03T23:18:04.847Z,9.60
2019-03-03T23:20:42.600Z,9.60
2019-03-03T23:23:57.512Z,9.50
2019-03-03T23:26:29.353Z,9.60
2019-03-03T23:29:01.069Z,9.60
2019-03-03T23:31:31.381Z,9.60
2019-03-03T23:34:01.753Z,9.60
2019-03-03T23:36:32.064Z,9.60
2019-03-03T23:39:02.374Z,9.60
2019-03-03T23:41:32.663Z,9.60
2019-03-03T23:44:02.978Z,9.70
2019-03-03T23:46:33.546Z,9.60
2019-03-03T23:49:05.636Z,9.60
2019-03-03T23:51:36.679Z,9.60
2019-03-03T23:54:27.125Z,9.70
2019-03-03T23:56:57.443Z,9.70
2019-03-03T23:59:28.209Z,9.60
